createdAt,value
2018-04-24T00:01:57.180Z,55.43
2018-04-24T00:04:22.980Z,56.13
2018-04-24T00:06:48.829Z,55.36
2018-04-24T00:09:14.621Z,55.92
2018-04-24T00:11:40.505Z,55.66
2018-04-24T00:14:06.308Z,55.79
2018-04-24T00:16:32.108Z,56.21
2018-04-24T00:18:57.904Z,56.00
2018-04-24T00:21:23.701Z,55.88
2018-04-24T00:23:49.535Z,55.64
2018-04-24T00:26:15.335Z,55.85
2018-04-24T00:28:41.245Z,56.27
2018-04-24T00:31:07.092Z,56.34
2018-04-24T00:33:32.892Z,56.11
2018-04-24T00:35:58.684Z,55.90
2018-04-24T00:38:25.376Z,54.94
2018-04-24T00:40:51.184Z,55.69
2018-04-24T00:43:16.992Z,55.01
2018-04-24T00:45:42.789Z,54.96
2018-04-24T00:48:09.614Z,55.26
2018-04-24T00:50:35.412Z,54.56
2018-04-24T00:53:07.396Z,55.15
2018-04-24T00:55:33.993Z,56.07
2018-04-24T00:57:59.832Z,55.29
2018-04-24T01:00:26.307Z,55.43
2018-04-24T01:02:52.100Z,55.85
2018-04-24T01:05:18.029Z,55.64
2018-04-24T01:07:43.864Z,55.76
2018-04-24T01:10:10.553Z,55.36
2018-04-24T01:12:37.298Z,55.18
2018-04-24T01:15:03.129Z,56.28
2018-04-24T01:17:28.959Z,55.96
2018-04-24T01:19:54.784Z,56.03
2018-04-24T01:22:21.481Z,55.82
2018-04-24T01:24:47.324Z,55.62
2018-04-24T01:27:13.247Z,56.05
2018-04-24T01:29:39.157Z,55.75
2018-04-24T01:32:05.816Z,56.34
2018-04-24T01:34:32.504Z,55.71
2018-04-24T01:36:58.300Z,55.23
2018-04-24T01:39:25.093Z,55.86
2018-04-24T01:41:51.909Z,56.00
2018-04-24T01:44:18.748Z,55.86
2018-04-24T01:46:44.545Z,55.44
2018-04-24T01:49:10.376Z,55.11
2018-04-24T01:51:36.955Z,55.10
2018-04-24T01:54:02.752Z,55.45
2018-04-24T01:56:28.581Z,55.61
2018-04-24T01:58:55.177Z,55.63
2018-04-24T02:01:20.973Z,54.29
2018-04-24T02:03:46.767Z,54.67
2018-04-24T02:06:13.457Z,55.58
2018-04-24T02:08:39.252Z,55.15
2018-04-24T02:11:05.959Z,55.20
2018-04-24T02:13:31.760Z,55.38
2018-04-24T02:15:57.600Z,54.81
2018-04-24T02:18:23.396Z,55.45
2018-04-24T02:20:50.144Z,54.97
2018-04-24T02:23:15.937Z,54.26
2018-04-24T02:25:41.792Z,54.52
2018-04-24T02:28:08.535Z,54.70
2018-04-24T02:30:34.360Z,54.94
2018-04-24T02:33:00.184Z,55.15
2018-04-24T02:35:26.800Z,54.51
2018-04-24T02:37:52.644Z,55.29
2018-04-24T02:40:18.454Z,54.82
2018-04-24T02:42:45.198Z,54.83
2018-04-24T02:45:11.152Z,55.01
2018-04-24T02:47:36.952Z,55.46
2018-04-24T02:50:02.778Z,53.79
2018-04-24T02:52:29.484Z,54.42
2018-04-24T02:54:55.281Z,54.69
2018-04-24T02:57:21.081Z,55.30
2018-04-24T02:59:47.840Z,54.43
2018-04-24T03:02:14.484Z,55.00
2018-04-24T03:04:41.225Z,54.63
2018-04-24T03:07:07.028Z,54.19
2018-04-24T03:09:33.852Z,55.14
2018-04-24T03:11:59.648Z,54.41
2018-04-24T03:14:25.450Z,54.36
2018-04-24T03:16:51.252Z,53.48
2018-04-24T03:19:17.048Z,54.87
2018-04-24T03:21:42.842Z,53.46
2018-04-24T03:24:08.792Z,54.28
2018-04-24T03:26:34.592Z,53.28
2018-04-24T03:29:00.520Z,54.18
2018-04-24T03:31:26.381Z,54.22
2018-04-24T03:33:52.181Z,53.08
2018-04-24T03:36:18.124Z,52.82
2018-04-24T03:38:43.929Z,53.79
2018-04-24T03:41:09.728Z,53.20
2018-04-24T03:43:35.744Z,53.62
2018-04-24T03:46:02.333Z,53.83
2018-04-24T03:48:28.337Z,54.74
2018-04-24T03:50:54.136Z,53.82
2018-04-24T03:53:20.640Z,53.62
2018-04-24T03:55:53.440Z,53.62
2018-04-24T03:58:19.243Z,53.91
2018-04-24T04:00:45.036Z,54.67
2018-04-24T04:03:11.840Z,53.79
2018-04-24T04:05:37.665Z,54.89
2018-04-24T04:08:03.532Z,54.16
2018-04-24T04:10:29.354Z,53.96
2018-04-24T04:12:56.185Z,54.46
2018-04-24T04:15:21.981Z,54.09
2018-04-24T04:17:54.085Z,54.40
2018-04-24T04:20:26.079Z,53.96
2018-04-24T04:22:58.120Z,53.03
2018-04-24T04:25:23.920Z,53.33
2018-04-24T04:27:50.786Z,53.80
2018-04-24T04:30:16.607Z,53.99
2018-04-24T04:32:42.403Z,53.80
2018-04-24T04:35:08.372Z,54.34
2018-04-24T04:37:34.185Z,53.67
2018-04-24T04:39:59.985Z,54.23
2018-04-24T04:42:25.779Z,53.81
2018-04-24T04:44:51.625Z,53.78
2018-04-24T04:47:18.343Z,53.92
2018-04-24T04:49:44.329Z,53.89
2018-04-24T04:52:10.678Z,54.01
2018-04-24T04:54:36.489Z,53.93
2018-04-24T04:57:02.313Z,53.98
2018-04-24T04:59:28.136Z,53.47
2018-04-24T05:01:54.846Z,54.04
2018-04-24T05:04:20.677Z,53.49
2018-04-24T05:06:46.473Z,53.39
2018-04-24T05:09:12.281Z,53.58
2018-04-24T05:11:38.077Z,53.79
2018-04-24T05:14:04.844Z,53.45
2018-04-24T05:16:30.792Z,53.56
2018-04-24T05:18:56.632Z,53.84
2018-04-24T05:21:22.531Z,53.36
2018-04-24T05:23:48.356Z,53.39
2018-04-24T05:26:14.161Z,53.30
2018-04-24T05:28:39.965Z,53.35
2018-04-24T05:31:05.768Z,53.63
2018-04-24T05:33:32.659Z,53.61
2018-04-24T05:35:59.272Z,53.45
2018-04-24T05:38:25.063Z,53.66
2018-04-24T05:40:50.860Z,53.52
2018-04-24T05:43:16.657Z,53.29
2018-04-24T05:45:42.455Z,53.50
2018-04-24T05:48:08.293Z,53.35
2018-04-24T05:50:34.133Z,53.82
2018-04-24T05:53:03.900Z,53.13
2018-04-24T05:55:29.672Z,53.85
2018-04-24T05:57:55.540Z,53.21
2018-04-24T06:00:21.340Z,53.71
2018-04-24T06:02:48.224Z,53.86
2018-04-24T06:05:14.897Z,53.55
2018-04-24T06:07:40.698Z,53.44
2018-04-24T06:10:06.498Z,54.15
2018-04-24T06:12:33.739Z,54.10
2018-04-24T06:15:00.545Z,53.51
2018-04-24T06:17:26.348Z,53.16
2018-04-24T06:19:52.176Z,52.70
2018-04-24T06:22:17.972Z,53.48
2018-04-24T06:24:43.796Z,52.32
2018-04-24T06:27:09.630Z,52.89
2018-04-24T06:29:36.414Z,52.27
2018-04-24T06:32:03.157Z,51.43
2018-04-24T06:34:29.085Z,52.64
2018-04-24T06:36:54.885Z,53.16
2018-04-24T06:39:20.682Z,52.74
2018-04-24T06:41:46.584Z,53.23
2018-04-24T06:44:12.383Z,53.29
2018-04-24T06:46:39.196Z,53.33
2018-04-24T06:49:05.798Z,53.91
2018-04-24T06:51:32.615Z,53.77
2018-04-24T06:53:59.223Z,53.17
2018-04-24T06:56:25.053Z,53.14
2018-04-24T06:58:51.860Z,53.47
2018-04-24T07:01:18.607Z,53.39
2018-04-24T07:03:45.340Z,53.88
2018-04-24T07:06:11.193Z,53.22
2018-04-24T07:08:36.997Z,54.03
2018-04-24T07:11:02.884Z,53.72
2018-04-24T07:13:28.815Z,53.85
2018-04-24T07:15:54.612Z,53.76
2018-04-24T07:18:21.317Z,53.87
2018-04-24T07:20:47.990Z,53.60
2018-04-24T07:23:14.752Z,53.49
2018-04-24T07:25:40.550Z,53.75
2018-04-24T07:28:06.349Z,53.82
2018-04-24T07:30:32.149Z,53.74
2018-04-24T07:32:59.076Z,54.17
2018-04-24T07:35:24.829Z,53.93
2018-04-24T07:37:53.457Z,54.23
2018-04-24T07:40:19.264Z,54.30
2018-04-24T07:42:46.056Z,54.13
2018-04-24T07:45:11.857Z,54.16
2018-04-24T07:47:37.656Z,54.28
2018-04-24T07:50:03.561Z,54.20
2018-04-24T07:52:29.365Z,54.15
2018-04-24T07:54:55.203Z,54.11
2018-04-24T07:57:21.028Z,54.16
2018-04-24T07:59:46.860Z,54.08
2018-04-24T08:02:12.724Z,53.97
2018-04-24T08:04:39.398Z,54.04
2018-04-24T08:07:06.000Z,54.14
2018-04-24T08:09:32.081Z,54.10
2018-04-24T08:11:57.906Z,54.04
2018-04-24T08:14:23.860Z,54.13
2018-04-24T08:16:50.512Z,54.13
2018-04-24T08:19:16.309Z,54.10
2018-04-24T08:21:42.112Z,54.11
2018-04-24T08:24:07.916Z,54.21
2018-04-24T08:26:33.716Z,54.20
2018-04-24T08:29:00.525Z,54.22
2018-04-24T08:31:27.262Z,54.28
2018-04-24T08:33:53.068Z,54.35
2018-04-24T08:36:18.860Z,54.16
2018-04-24T08:38:45.595Z,54.21
2018-04-24T08:41:11.396Z,54.14
2018-04-24T08:43:37.197Z,54.25
2018-04-24T08:46:03.052Z,54.20
2018-04-24T08:48:28.857Z,54.19
2018-04-24T08:50:54.657Z,54.23
2018-04-24T08:53:20.464Z,54.29
2018-04-24T08:55:46.272Z,54.20
2018-04-24T08:58:12.101Z,54.31
2018-04-24T09:00:37.911Z,54.18
2018-04-24T09:03:04.736Z,54.33
2018-04-24T09:05:30.552Z,54.22
2018-04-24T09:07:56.350Z,54.29
2018-04-24T09:10:22.156Z,54.16
2018-04-24T09:12:47.961Z,54.17
2018-04-24T09:15:13.767Z,54.28
2018-04-24T09:17:39.561Z,54.11
2018-04-24T09:20:05.455Z,54.11
2018-04-24T09:22:31.252Z,54.29
2018-04-24T09:24:57.055Z,54.09
2018-04-24T09:27:22.852Z,54.19
2018-04-24T09:29:55.800Z,54.23
2018-04-24T09:32:21.631Z,54.56
2018-04-24T09:34:47.508Z,54.44
2018-04-24T09:37:13.333Z,54.49
2018-04-24T09:39:40.169Z,54.32
2018-04-24T09:42:06.808Z,54.29
2018-04-24T09:44:33.436Z,54.45
2018-04-24T09:46:59.936Z,54.45
2018-04-24T09:49:25.855Z,54.36
2018-04-24T09:51:51.664Z,54.54
2018-04-24T09:54:18.366Z,54.52
2018-04-24T09:56:44.251Z,54.46
2018-04-24T09:59:10.034Z,54.54
2018-04-24T10:01:35.860Z,54.48
2018-04-24T10:04:01.688Z,54.47
2018-04-24T10:06:28.436Z,54.53
2018-04-24T10:08:54.234Z,54.53
2018-04-24T10:11:20.895Z,54.23
2018-04-24T10:13:46.816Z,54.38
2018-04-24T10:16:12.687Z,54.35
2018-04-24T10:18:39.368Z,54.36
2018-04-24T10:21:06.112Z,54.41
2018-04-24T10:23:32.912Z,54.51
2018-04-24T10:25:58.711Z,54.52
2018-04-24T10:28:24.540Z,54.34
2018-04-24T10:30:51.316Z,54.45
2018-04-24T10:33:17.810Z,54.54
2018-04-24T10:35:44.503Z,54.55
2018-04-24T10:38:11.373Z,54.55
2018-04-24T10:40:37.172Z,54.57
2018-04-24T10:43:03.018Z,54.61
2018-04-24T10:45:29.733Z,54.54
2018-04-24T10:47:56.451Z,54.39
2018-04-24T10:50:22.244Z,54.32
2018-04-24T10:52:48.985Z,54.45
2018-04-24T10:55:15.816Z,54.35
2018-04-24T10:57:41.653Z,54.38
2018-04-24T11:00:07.451Z,54.46
2018-04-24T11:02:33.293Z,54.52
2018-04-24T11:04:59.985Z,54.59
2018-04-24T11:07:25.790Z,54.34
2018-04-24T11:09:52.713Z,54.51
2018-04-24T11:12:18.529Z,54.53
2018-04-24T11:14:44.333Z,54.43
2018-04-24T11:17:10.152Z,54.46
2018-04-24T11:19:36.773Z,54.50
2018-04-24T11:22:02.577Z,54.57
2018-04-24T11:24:29.299Z,54.54
2018-04-24T11:26:55.940Z,54.64
2018-04-24T11:29:22.760Z,54.60
2018-04-24T11:31:48.603Z,54.70
2018-04-24T11:34:14.502Z,54.66
2018-04-24T11:36:41.195Z,54.64
2018-04-24T11:39:07.898Z,54.65
2018-04-24T11:41:37.808Z,54.54
2018-04-24T11:44:04.477Z,54.51
2018-04-24T11:46:31.168Z,54.32
2018-04-24T11:48:57.909Z,54.48
2018-04-24T11:51:25.433Z,54.33
2018-04-24T11:53:51.240Z,54.42
2018-04-24T11:56:17.068Z,54.42
2018-04-24T11:58:43.681Z,54.40
2018-04-24T12:01:10.392Z,54.42
2018-04-24T12:03:37.160Z,54.49
2018-04-24T12:06:03.949Z,54.45
2018-04-24T12:08:30.746Z,54.59
2018-04-24T12:10:57.370Z,54.50
2018-04-24T12:13:23.172Z,54.59
2018-04-24T12:15:49.023Z,54.63
2018-04-24T12:18:15.785Z,54.64
2018-04-24T12:20:41.584Z,54.49
2018-04-24T12:23:07.477Z,54.31
2018-04-24T12:25:33.276Z,54.48
2018-04-24T12:27:59.084Z,54.67
2018-04-24T12:30:24.941Z,54.74
2018-04-24T12:32:50.716Z,54.71
2018-04-24T12:35:17.448Z,54.59
2018-04-24T12:37:43.353Z,54.78
2018-04-24T12:40:09.154Z,54.76
2018-04-24T12:42:34.957Z,54.76
2018-04-24T12:45:00.813Z,54.61
2018-04-24T12:47:26.732Z,54.63
2018-04-24T12:49:52.528Z,54.44
2018-04-24T12:52:18.324Z,54.44
2018-04-24T12:54:44.140Z,54.46
2018-04-24T12:57:10.011Z,54.57
2018-04-24T12:59:35.813Z,54.57
2018-04-24T13:02:01.617Z,54.59
2018-04-24T13:04:27.421Z,54.39
2018-04-24T13:06:53.216Z,54.56
2018-04-24T13:09:19.047Z,54.44
2018-04-24T13:11:44.848Z,54.45
2018-04-24T13:14:10.651Z,54.55
2018-04-24T13:16:36.455Z,54.34
2018-04-24T13:19:02.260Z,54.32
2018-04-24T13:21:28.055Z,54.47
2018-04-24T13:23:53.856Z,54.45
2018-04-24T13:26:19.656Z,54.42
2018-04-24T13:28:45.458Z,54.35
2018-04-24T13:31:11.260Z,54.04
2018-04-24T13:33:37.104Z,54.11
2018-04-24T13:36:02.933Z,53.55
2018-04-24T13:38:29.720Z,53.64
2018-04-24T13:40:56.512Z,53.33
2018-04-24T13:43:22.304Z,53.38
2018-04-24T13:45:48.251Z,53.27
2018-04-24T13:48:14.060Z,53.13
2018-04-24T13:50:39.889Z,53.37
2018-04-24T13:53:05.726Z,53.49
2018-04-24T13:55:32.570Z,53.50
2018-04-24T13:57:58.429Z,53.50
2018-04-24T14:00:24.229Z,53.69
2018-04-24T14:02:50.027Z,53.65
2018-04-24T14:05:16.760Z,53.71
2018-04-24T14:07:42.555Z,53.71
2018-04-24T14:10:08.498Z,53.89
2018-04-24T14:12:35.260Z,53.69
2018-04-24T14:15:02.087Z,53.61
2018-04-24T14:17:27.888Z,53.96
2018-04-24T14:19:54.586Z,54.07
2018-04-24T14:22:21.305Z,54.24
2018-04-24T14:24:48.071Z,54.21
2018-04-24T14:27:13.898Z,54.39
2018-04-24T14:29:40.704Z,54.17
2018-04-24T14:32:09.596Z,54.32
2018-04-24T14:34:35.439Z,54.22
2018-04-24T14:37:02.365Z,54.09
2018-04-24T14:39:29.121Z,54.14
2018-04-24T14:41:54.933Z,54.25
2018-04-24T14:44:20.761Z,54.29
2018-04-24T14:46:46.584Z,54.19
2018-04-24T14:49:12.380Z,54.17
2018-04-24T14:51:39.155Z,54.28
2018-04-24T14:54:04.965Z,54.37
2018-04-24T14:56:31.690Z,54.51
2018-04-24T14:58:57.498Z,54.51
2018-04-24T15:01:24.195Z,54.51
2018-04-24T15:03:49.988Z,54.53
2018-04-24T15:06:16.793Z,54.51
2018-04-24T15:08:42.594Z,54.64
2018-04-24T15:11:09.239Z,54.68
2018-04-24T15:13:35.040Z,54.67
2018-04-24T15:16:00.844Z,54.74
2018-04-24T15:18:27.706Z,54.61
2018-04-24T15:20:54.425Z,54.84
2018-04-24T15:23:20.272Z,55.00
2018-04-24T15:25:46.940Z,54.85
2018-04-24T15:28:12.795Z,55.04
2018-04-24T15:30:38.567Z,55.04
2018-04-24T15:33:05.187Z,54.73
2018-04-24T15:35:31.972Z,54.74
2018-04-24T15:37:57.773Z,54.86
2018-04-24T15:40:24.529Z,54.62
2018-04-24T15:42:51.271Z,54.65
2018-04-24T15:45:18.168Z,54.79
2018-04-24T15:47:43.968Z,54.75
2018-04-24T15:50:09.760Z,54.48
2018-04-24T15:52:36.517Z,54.65
2018-04-24T15:55:03.324Z,54.73
2018-04-24T15:57:29.120Z,54.84
2018-04-24T15:59:55.836Z,54.90
2018-04-24T16:02:22.580Z,54.94
2018-04-24T16:04:49.398Z,54.75
2018-04-24T16:07:15.203Z,54.75
2018-04-24T16:09:41.928Z,54.84
2018-04-24T16:12:08.637Z,54.76
2018-04-24T16:14:34.428Z,54.84
2018-04-24T16:17:01.127Z,54.95
2018-04-24T16:19:27.039Z,54.89
2018-04-24T16:21:52.761Z,55.00
2018-04-24T16:24:18.665Z,55.09
2018-04-24T16:26:44.619Z,55.10
2018-04-24T16:29:11.409Z,54.86
2018-04-24T16:31:37.204Z,54.97
2018-04-24T16:34:03.065Z,54.88
2018-04-24T16:36:28.888Z,55.05
2018-04-24T16:38:54.734Z,54.98
2018-04-24T16:41:20.654Z,54.98
2018-04-24T16:43:46.465Z,54.98
2018-04-24T16:46:12.290Z,54.73
2018-04-24T16:48:38.119Z,54.93
2018-04-24T16:51:03.936Z,55.14
2018-04-24T16:53:29.750Z,55.10
2018-04-24T16:55:55.557Z,55.00
2018-04-24T16:58:21.354Z,55.05
2018-04-24T17:03:42.421Z,55.17
2018-04-24T17:06:08.276Z,55.09
2018-04-24T17:08:34.107Z,55.37
2018-04-24T17:10:59.913Z,55.19
2018-04-24T17:13:26.621Z,55.19
2018-04-24T17:15:52.421Z,55.23
2018-04-24T17:18:18.225Z,55.26
2018-04-24T17:20:44.033Z,55.25
2018-04-24T17:23:09.841Z,55.26
2018-04-24T17:25:35.725Z,55.22
2018-04-24T17:28:01.534Z,55.18
2018-04-24T17:30:27.460Z,54.56
2018-04-24T17:32:53.262Z,54.44
2018-04-24T17:35:19.125Z,53.88
2018-04-24T17:37:45.024Z,53.95
2018-04-24T17:40:11.154Z,54.23
2018-04-24T17:42:36.970Z,53.88
2018-04-24T17:45:03.225Z,54.05
2018-04-24T17:47:29.028Z,54.26
2018-04-24T17:49:54.836Z,54.33
2018-04-24T17:52:21.774Z,54.49
2018-04-24T17:54:47.589Z,54.39
2018-04-24T17:57:13.546Z,54.57
2018-04-24T17:59:39.297Z,54.61
2018-04-24T18:02:05.164Z,54.83
2018-04-24T18:04:31.309Z,55.06
2018-04-24T18:06:58.185Z,55.17
2018-04-24T18:09:24.012Z,55.31
2018-04-24T18:11:49.848Z,55.13
2018-04-24T18:14:15.652Z,54.90
2018-04-24T18:16:41.497Z,55.30
2018-04-24T18:19:07.302Z,55.33
2018-04-24T18:21:33.180Z,54.80
2018-04-24T18:23:58.945Z,55.15
2018-04-24T18:26:24.753Z,55.09
2018-04-24T18:28:50.588Z,55.24
2018-04-24T18:31:16.409Z,55.11
2018-04-24T18:33:42.367Z,55.24
2018-04-24T18:36:09.072Z,55.07
2018-04-24T18:38:34.910Z,55.43
2018-04-24T18:41:00.722Z,55.49
2018-04-24T18:43:26.639Z,55.19
2018-04-24T18:45:52.452Z,55.73
2018-04-24T18:48:18.264Z,55.52
2018-04-24T18:50:44.981Z,55.72
2018-04-24T18:53:10.905Z,55.80
2018-04-24T18:55:37.602Z,55.98
2018-04-24T18:58:04.374Z,56.05
2018-04-24T19:00:30.208Z,56.24
2018-04-24T19:02:56.015Z,55.77
2018-04-24T19:05:22.787Z,56.14
2018-04-24T19:07:49.665Z,55.35
2018-04-24T19:10:15.525Z,55.64
2018-04-24T19:12:41.361Z,55.62
2018-04-24T19:15:07.236Z,55.81
2018-04-24T19:17:33.050Z,55.61
2018-04-24T19:19:58.892Z,55.33
2018-04-24T19:22:24.900Z,55.50
2018-04-24T19:24:57.000Z,55.63
2018-04-24T19:27:22.847Z,56.06
2018-04-24T19:29:48.748Z,56.02
2018-04-24T19:32:21.561Z,55.76
2018-04-24T19:34:48.177Z,55.70
2018-04-24T19:37:15.036Z,56.12
2018-04-24T19:39:47.872Z,55.66
2018-04-24T19:42:14.485Z,56.08
2018-04-24T19:44:40.333Z,55.78
2018-04-24T19:47:06.149Z,55.77
2018-04-24T19:49:38.103Z,55.72
2018-04-24T19:52:04.736Z,55.96
2018-04-24T19:54:30.549Z,56.00
2018-04-24T19:56:57.252Z,55.32
2018-04-24T19:59:23.089Z,55.72
2018-04-24T20:01:50.175Z,55.70
2018-04-24T20:04:16.325Z,55.76
2018-04-24T20:06:43.165Z,55.52
2018-04-24T20:09:09.018Z,55.82
2018-04-24T20:11:34.825Z,55.50
2018-04-24T20:14:00.712Z,55.63
2018-04-24T20:16:26.520Z,55.85
2018-04-24T20:18:52.373Z,55.60
2018-04-24T20:21:18.369Z,55.40
2018-04-24T20:23:45.225Z,55.69
2018-04-24T20:26:11.033Z,55.81
2018-04-24T20:28:37.793Z,55.65
2018-04-24T20:31:04.585Z,55.66
2018-04-24T20:33:30.461Z,55.47
2018-04-24T20:35:56.364Z,55.41
2018-04-24T20:38:22.168Z,55.41
2018-04-24T20:40:48.000Z,55.74
2018-04-24T20:43:14.025Z,55.55
2018-04-24T20:45:40.650Z,55.95
2018-04-24T20:48:07.301Z,55.50
2018-04-24T20:50:33.109Z,55.24
2018-04-24T20:52:59.820Z,55.33
2018-04-24T20:55:25.625Z,55.25
2018-04-24T20:57:51.456Z,55.71
2018-04-24T21:00:17.260Z,55.63
2018-04-24T21:02:43.071Z,54.80
2018-04-24T21:05:08.877Z,55.38
2018-04-24T21:07:34.716Z,55.98
2018-04-24T21:10:00.523Z,56.01
2018-04-24T21:12:26.325Z,55.79
2018-04-24T21:14:52.133Z,55.67
2018-04-24T21:17:17.936Z,55.93
2018-04-24T21:19:44.591Z,55.69
2018-04-24T21:22:10.405Z,55.99
2018-04-24T21:24:36.231Z,55.67
2018-04-24T21:27:02.042Z,54.96
2018-04-24T21:29:27.848Z,54.99
2018-04-24T21:31:54.285Z,55.37
2018-04-24T21:34:20.099Z,55.35
2018-04-24T21:36:45.905Z,55.69
2018-04-24T21:39:11.713Z,55.33
2018-04-24T21:41:38.394Z,55.85
2018-04-24T21:44:05.214Z,55.82
2018-04-24T21:46:31.184Z,55.77
2018-04-24T21:48:56.990Z,55.57
2018-04-24T21:51:23.773Z,55.85
2018-04-24T21:53:50.497Z,55.30
2018-04-24T21:56:16.297Z,55.76
2018-04-24T21:58:42.097Z,55.74
2018-04-24T22:01:07.892Z,54.46
2018-04-24T22:03:33.692Z,55.14
2018-04-24T22:05:59.492Z,55.59
2018-04-24T22:08:25.312Z,55.85
2018-04-24T22:10:51.116Z,55.62
2018-04-24T22:13:16.917Z,55.38
2018-04-24T22:15:42.748Z,55.93
2018-04-24T22:18:08.556Z,55.68
2018-04-24T22:20:34.356Z,55.69
2018-04-24T22:23:00.285Z,55.64
2018-04-24T22:25:26.092Z,54.95
2018-04-24T22:27:51.920Z,54.95
2018-04-24T22:30:17.727Z,54.77
2018-04-24T22:32:44.410Z,54.29
2018-04-24T22:35:11.301Z,53.84
2018-04-24T22:37:38.205Z,54.08
2018-04-24T22:40:04.275Z,53.92
2018-04-24T22:42:30.084Z,54.08
2018-04-24T22:44:55.884Z,54.08
2018-04-24T22:47:21.686Z,54.39
2018-04-24T22:49:47.485Z,54.08
2018-04-24T22:52:14.192Z,54.24
2018-04-24T22:54:41.053Z,54.23
2018-04-24T22:57:07.017Z,54.52
2018-04-24T22:59:32.850Z,54.69
2018-04-24T23:01:59.684Z,54.70
2018-04-24T23:04:25.480Z,54.22
2018-04-24T23:06:51.322Z,54.11
2018-04-24T23:09:18.067Z,54.77
2018-04-24T23:11:50.111Z,54.68
2018-04-24T23:14:22.181Z,55.03
2018-04-24T23:16:54.153Z,55.45
2018-04-24T23:19:26.073Z,55.36
2018-04-24T23:21:51.811Z,55.45
2018-04-24T23:24:17.678Z,54.61
2018-04-24T23:26:43.481Z,55.43
2018-04-24T23:29:09.288Z,55.27
2018-04-24T23:31:35.120Z,54.90
2018-04-24T23:34:00.920Z,55.62
2018-04-24T23:36:27.545Z,55.00
2018-04-24T23:38:54.242Z,55.40
2018-04-24T23:41:20.044Z,54.70
2018-04-24T23:43:46.700Z,55.10
2018-04-24T23:46:13.524Z,55.01
2018-04-24T23:48:40.364Z,55.52
2018-04-24T23:51:07.034Z,54.98
2018-04-24T23:53:32.839Z,55.59
2018-04-24T23:55:58.647Z,55.50
2018-04-24T23:58:25.476Z,54.87
